Time;durP1;ratioP1;P1;durP2;ratioP2;P2;SDS_P1;SDS_P2;PMS_P1;PMS_P2;Temp;Humidity;BMP_temperature;BMP_pressure;BME280_temperature;BME280_humidity;BME280_pressure;Samples;Min_cycle;Max_cycle;Signal;HPM_P1;HPM_P2
2022/05/02 00:00:53;;;;;;;13.90;6.13;;;5.30;99.90;;;;;;5048263;28;20048;-81
2022/05/02 00:03:19;;;;;;;8.35;3.65;;;5.70;99.90;;;;;;5064110;28;20040;-82
2022/05/02 00:05:45;;;;;;;6.65;4.88;;;5.30;99.90;;;;;;5064687;28;20041;-81
2022/05/02 00:08:11;;;;;;;6.93;3.70;;;5.20;99.90;;;;;;5065814;28;20491;-82
2022/05/02 00:10:37;;;;;;;7.32;4.38;;;5.20;99.90;;;;;;5065050;28;20048;-82
2022/05/02 00:13:04;;;;;;;5.55;3.83;;;6.30;99.90;;;;;;5064656;28;20059;-82
2022/05/02 00:15:31;;;;;;;8.25;4.88;;;5.20;99.90;;;;;;5068634;28;20044;-82
2022/05/02 00:17:57;;;;;;;7.60;4.32;;;6.50;99.90;;;;;;5069333;28;20044;-82
2022/05/02 00:20:31;;;;;;;11.95;5.03;;;5.10;99.90;;;;;;5068627;28;20559;-82
2022/05/02 00:22:58;;;;;;;10.63;4.82;;;5.10;99.90;;;;;;5067627;28;20045;-82
2022/05/02 00:25:25;;;;;;;7.70;4.45;;;6.50;99.90;;;;;;5050888;28;20549;-82
2022/05/02 00:27:50;;;;;;;7.75;5.07;;;6.40;99.90;;;;;;5067546;28;20468;-82
2022/05/02 00:30:17;;;;;;;9.05;4.40;;;5.00;99.90;;;;;;5069011;28;20116;-83
2022/05/02 00:32:43;;;;;;;8.60;4.28;;;5.30;99.90;;;;;;5066861;28;20053;-82
2022/05/02 00:35:10;;;;;;;8.02;4.00;;;6.00;99.90;;;;;;5069357;28;20395;-83
2022/05/02 00:37:37;;;;;;;9.40;5.38;;;6.00;99.90;;;;;;5068252;28;20041;-83
2022/05/02 00:40:06;;;;;;;7.63;4.78;;;4.90;99.90;;;;;;5050165;28;20052;-83
2022/05/02 00:42:32;;;;;;;6.85;4.88;;;4.90;99.90;;;;;;5069010;28;20095;-82
2022/05/02 00:44:58;;;;;;;10.23;4.43;;;4.80;99.90;;;;;;5067179;28;20493;-83
2022/05/02 00:47:23;;;;;;;6.38;4.75;;;4.80;99.90;;;;;;5069454;28;20037;-83
2022/05/02 00:49:49;;;;;;;5.22;4.15;;;4.70;99.90;;;;;;5066247;28;20487;-83
2022/05/02 00:52:17;;;;;;;7.15;5.15;;;4.70;99.90;;;;;;5067169;28;20044;-82
2022/05/02 00:54:44;;;;;;;10.48;5.40;;;4.70;99.90;;;;;;5050026;28;20048;-82
2022/05/02 00:57:14;;;;;;;8.88;5.65;;;4.60;99.90;;;;;;5068539;28;20047;-83
2022/05/02 00:59:40;;;;;;;8.18;5.68;;;4.60;99.90;;;;;;5069566;28;20071;-82
2022/05/02 01:02:09;;;;;;;6.38;5.35;;;4.60;99.90;;;;;;5068407;28;20392;-83
2022/05/02 01:04:37;;;;;;;10.70;4.70;;;4.60;99.90;;;;;;5069065;28;20040;-82
2022/05/02 01:07:10;;;;;;;7.20;5.00;;;4.60;99.90;;;;;;5049716;28;20048;-83
2022/05/02 01:09:38;;;;;;;;;;;4.50;99.90;;;;;;5068521;28;20044;-82
2022/05/02 01:12:06;;;;;;;13.85;5.13;;;4.50;99.90;;;;;;5068391;28;19920;-82
2022/05/02 01:14:35;;;;;;;7.68;4.97;;;4.50;99.90;;;;;;5067885;28;20574;-82
2022/05/02 01:17:03;;;;;;;10.98;5.82;;;4.50;99.90;;;;;;5068803;28;20051;-82
2022/05/02 01:19:29;;;;;;;7.13;5.00;;;4.40;99.90;;;;;;5067744;28;20179;-82
2022/05/02 01:21:55;;;;;;;10.27;6.13;;;4.80;99.90;;;;;;5066976;28;20051;-83
2022/05/02 01:24:20;;;;;;;7.30;5.22;;;4.40;99.90;;;;;;5067462;28;20469;-83
2022/05/02 01:26:46;;;;;;;8.38;5.45;;;5.70;99.90;;;;;;5067951;28;20131;-83
2022/05/02 01:29:12;;;;;;;7.00;5.43;;;4.40;99.90;;;;;;5068004;28;20045;-82
2022/05/02 01:31:37;;;;;;;9.88;5.30;;;4.40;99.90;;;;;;5067812;28;20041;-83
2022/05/02 01:34:03;;;;;;;13.07;6.55;;;4.40;99.90;;;;;;5066992;28;20120;-82
2022/05/02 01:36:29;;;;;;;7.05;5.82;;;4.30;99.90;;;;;;5066111;28;20446;-82
2022/05/02 01:38:55;;;;;;;7.97;5.78;;;4.30;99.90;;;;;;5068369;28;20295;-82
2022/05/02 01:41:20;;;;;;;6.45;5.00;;;4.30;99.90;;;;;;5067480;28;20455;-82
2022/05/02 01:43:46;;;;;;;7.65;5.38;;;4.30;99.90;;;;;;5067670;28;20043;-83
2022/05/02 01:46:13;;;;;;;7.22;5.53;;;4.20;99.90;;;;;;5065887;28;20091;-82
2022/05/02 01:48:38;;;;;;;8.45;5.28;;;3.00;99.90;;;;;;5067430;28;20059;-82
2022/05/02 01:51:04;;;;;;;8.27;5.25;;;4.20;99.90;;;;;;5067238;28;20442;-82
2022/05/02 01:53:30;;;;;;;15.68;6.18;;;4.10;99.90;;;;;;5065397;28;20049;-82
2022/05/02 01:55:56;;;;;;;8.68;5.57;;;4.70;99.90;;;;;;5067648;28;20049;-82
2022/05/02 01:58:22;;;;;;;8.38;5.95;;;4.10;99.90;;;;;;5066609;28;20401;-83
2022/05/02 02:00:48;;;;;;;7.25;5.45;;;4.00;99.90;;;;;;5067196;28;20089;-82
2022/05/02 02:03:14;;;;;;;8.13;6.45;;;5.10;99.90;;;;;;5065749;28;20071;-82
2022/05/02 02:05:48;;;;;;;7.95;6.25;;;4.00;99.90;;;;;;5033046;28;20044;-82
2022/05/02 02:08:33;;;;;;;8.00;6.18;;;4.00;99.90;;;;;;5049671;28;20048;-83
2022/05/02 02:11:07;;;;;;;11.93;6.10;;;3.40;99.90;;;;;;5065065;28;20040;-82
2022/05/02 02:13:33;;;;;;;10.30;6.20;;;3.70;99.90;;;;;;5066951;28;20528;-82
2022/05/02 02:16:01;;;;;;;9.38;6.38;;;4.70;99.90;;;;;;5066889;28;20041;-82
2022/05/02 02:18:27;;;;;;;18.02;7.50;;;3.90;99.90;;;;;;5065579;28;20044;-82
2022/05/02 02:20:54;;;;;;;13.40;6.60;;;3.90;99.90;;;;;;5065616;28;20040;-82
2022/05/02 02:23:21;;;;;;;8.88;6.57;;;4.50;99.90;;;;;;5066823;28;20044;-82
2022/05/02 02:25:47;;;;;;;10.25;6.13;;;3.90;99.90;;;;;;5066131;28;20047;-82
2022/05/02 02:28:15;;;;;;;13.05;6.80;;;3.90;99.90;;;;;;5066932;28;20369;-83
2022/05/02 02:30:41;;;;;;;8.73;6.40;;;3.90;99.90;;;;;;5067077;28;20773;-82
2022/05/02 02:33:07;;;;;;;9.10;6.72;;;3.90;99.90;;;;;;5065228;28;20045;-82
2022/05/02 02:35:33;;;;;;;10.15;6.50;;;4.60;99.90;;;;;;5067043;28;20098;-83
2022/05/02 02:37:59;;;;;;;13.20;6.82;;;3.80;99.90;;;;;;5066541;28;20048;-82
2022/05/02 02:40:25;;;;;;;13.80;6.57;;;3.80;99.90;;;;;;5065189;28;20480;-83
2022/05/02 02:42:50;;;;;;;10.23;6.40;;;3.70;99.90;;;;;;5067059;28;20040;-82
2022/05/02 02:45:16;;;;;;;11.23;6.28;;;3.70;99.90;;;;;;5066410;28;20098;-82
2022/05/02 02:47:42;;;;;;;9.20;6.80;;;3.70;99.90;;;;;;5065749;28;20454;-82
2022/05/02 02:50:09;;;;;;;10.88;6.45;;;5.00;99.90;;;;;;5066366;28;20088;-83
2022/05/02 02:52:35;;;;;;;10.48;6.53;;;4.30;99.90;;;;;;5065440;28;20411;-83
2022/05/02 02:55:01;;;;;;;10.27;6.35;;;3.70;99.90;;;;;;5066351;28;20566;-82
2022/05/02 02:57:27;;;;;;;10.55;6.85;;;3.60;99.90;;;;;;5048555;28;20143;-83
2022/05/02 02:59:53;;;;;;;8.23;6.45;;;3.50;99.90;;;;;;5066612;28;20131;-82
2022/05/02 03:02:19;;;;;;;8.60;6.72;;;4.80;99.90;;;;;;5066247;28;20119;-82
2022/05/02 03:07:30;;;;;;;9.07;6.20;;;3.60;99.90;;;;;;5066058;28;20554;-82
2022/05/02 03:09:57;;;;;;;15.27;7.20;;;4.60;99.90;;;;;;5066177;28;20044;-82
2022/05/02 03:12:23;;;;;;;9.90;6.55;;;4.50;99.90;;;;;;5065514;28;20041;-83
2022/05/02 03:14:49;;;;;;;10.55;6.97;;;4.80;99.90;;;;;;5047826;28;20044;-83
2022/05/02 03:17:15;;;;;;;7.47;6.30;;;3.50;99.90;;;;;;5065293;28;20032;-82
2022/05/02 03:19:41;;;;;;;9.75;6.43;;;3.60;99.90;;;;;;5064695;28;20052;-82
2022/05/02 03:22:07;;;;;;;14.50;7.30;;;4.90;99.90;;;;;;5066348;28;20462;-82
2022/05/02 03:24:33;;;;;;;12.18;6.88;;;4.90;99.90;;;;;;5048416;28;20594;-82
2022/05/02 03:26:58;;;;;;;8.77;6.50;;;3.50;99.90;;;;;;5064972;28;20036;-82
2022/05/02 03:29:24;;;;;;;10.40;6.82;;;3.40;99.90;;;;;;5064647;28;20052;-82
2022/05/02 03:31:50;;;;;;;9.27;5.80;;;3.40;99.90;;;;;;5066089;28;20376;-83
2022/05/02 03:34:16;;;;;;;7.65;5.95;;;3.30;99.90;;;;;;5066238;28;20053;-83
2022/05/02 03:36:42;;;;;;;8.50;6.40;;;3.30;99.90;;;;;;5047457;28;20037;-83
2022/05/02 03:39:09;;;;;;;10.02;6.88;;;3.30;99.90;;;;;;5031187;28;20045;-82
2022/05/02 03:41:34;;;;;;;10.65;7.30;;;3.30;99.90;;;;;;5065604;28;20037;-83
2022/05/02 03:44:00;;;;;;;9.50;6.63;;;4.30;99.90;;;;;;5064554;28;20052;-82
2022/05/02 03:46:26;;;;;;;11.45;7.78;;;3.20;99.90;;;;;;5064514;28;20050;-83
2022/05/02 03:48:52;;;;;;;8.80;6.20;;;3.60;99.90;;;;;;5066063;28;20364;-83
2022/05/02 03:51:18;;;;;;;9.85;6.85;;;3.30;99.90;;;;;;5068167;28;20519;-83
2022/05/02 03:53:44;;;;;;;9.10;6.70;;;4.60;99.90;;;;;;5069323;28;20037;-83
2022/05/02 03:56:10;;;;;;;8.15;6.13;;;3.20;99.90;;;;;;5052063;28;20117;-83
2022/05/02 03:58:36;;;;;;;11.82;6.22;;;3.20;99.90;;;;;;5069166;28;20049;-82
2022/05/02 04:01:01;;;;;;;12.23;7.00;;;4.20;99.90;;;;;;5069563;28;20339;-83
2022/05/02 04:03:27;;;;;;;11.27;6.30;;;3.20;99.90;;;;;;5069659;28;20094;-83
2022/05/02 04:05:53;;;;;;;7.85;6.43;;;3.20;99.90;;;;;;5069642;28;20040;-83
2022/05/02 04:08:18;;;;;;;13.18;7.05;;;3.20;99.90;;;;;;5069709;28;20492;-82
2022/05/02 04:10:45;;;;;;;12.48;8.95;;;3.20;99.90;;;;;;5067598;28;20106;-82
2022/05/02 04:13:11;;;;;;;13.48;7.80;;;3.20;99.90;;;;;;5051395;28;20447;-82
2022/05/02 04:15:37;;;;;;;12.23;7.70;;;3.30;99.90;;;;;;5069187;28;20124;-82
2022/05/02 04:18:03;;;;;;;13.27;8.27;;;3.40;99.90;;;;;;5067843;28;20522;-83
2022/05/02 04:20:28;;;;;;;12.02;7.30;;;3.40;99.90;;;;;;5069237;28;20044;-82
2022/05/02 04:22:54;;;;;;;10.98;7.22;;;3.40;99.90;;;;;;5067863;28;20037;-82
2022/05/02 04:25:20;;;;;;;8.88;6.45;;;3.40;99.90;;;;;;5068089;28;20053;-82
2022/05/02 04:27:46;;;;;;;20.23;7.38;;;3.40;99.90;;;;;;5069068;28;20419;-82
2022/05/02 04:30:12;;;;;;;7.18;5.22;;;4.70;99.90;;;;;;5069161;28;20036;-82
2022/05/02 04:32:38;;;;;;;6.10;4.70;;;3.50;99.90;;;;;;5067652;28;20040;-82
2022/05/02 04:35:05;;;;;;;6.53;4.43;;;3.50;99.90;;;;;;5051024;28;20037;-82
2022/05/02 04:37:31;;;;;;;5.78;3.97;;;3.50;99.90;;;;;;5067623;28;20111;-82
2022/05/02 04:39:57;;;;;;;12.63;4.68;;;3.50;99.90;;;;;;5069103;28;20036;-83
2022/05/02 04:42:22;;;;;;;7.85;4.53;;;3.50;99.90;;;;;;5051118;28;20426;-83
2022/05/02 04:44:49;;;;;;;12.10;4.90;;;3.50;99.90;;;;;;5066983;28;20123;-83
2022/05/02 04:47:15;;;;;;;7.30;5.55;;;3.50;99.90;;;;;;5068808;28;20041;-82
2022/05/02 04:49:41;;;;;;;6.20;4.63;;;4.80;99.90;;;;;;5066828;28;20061;-82
2022/05/02 04:52:07;;;;;;;6.25;4.60;;;3.60;99.90;;;;;;5067466;28;20112;-82
2022/05/02 04:54:33;;;;;;;8.35;4.88;;;3.60;99.90;;;;;;5050822;28;20048;-82
2022/05/02 04:56:58;;;;;;;7.28;4.93;;;3.60;99.90;;;;;;5068750;28;20040;-83
2022/05/02 04:59:24;;;;;;;8.75;4.97;;;4.90;99.90;;;;;;5068058;28;20040;-83
2022/05/02 05:01:51;;;;;;;10.18;5.50;;;3.80;99.90;;;;;;5068838;28;20045;-83
2022/05/02 05:04:17;;;;;;;7.63;4.90;;;3.80;99.90;;;;;;5067403;28;20044;-82
2022/05/02 05:06:43;;;;;;;9.95;5.22;;;3.90;99.90;;;;;;5066628;28;20045;-83
2022/05/02 05:09:09;;;;;;;7.50;4.97;;;5.20;99.90;;;;;;5033754;28;20051;-82
2022/05/02 05:11:56;;;;;;;7.53;5.05;;;5.30;99.90;;;;;;5050227;28;20037;-83
2022/05/02 05:17:31;;;;;;;7.57;4.70;;;4.20;99.90;;;;;;5068323;28;20051;-82
2022/05/02 05:20:10;;;;;;;8.32;5.90;;;4.30;99.90;;;;;;5068084;28;20119;-82
2022/05/02 05:22:50;;;;;;;8.93;5.90;;;4.40;99.90;;;;;;5068243;28;20052;-82
2022/05/02 05:25:35;;;;;;;10.05;5.82;;;4.50;99.90;;;;;;5066942;28;20051;-82
2022/05/02 05:28:15;;;;;;;11.88;5.95;;;4.70;99.90;;;;;;5068011;28;20045;-82
2022/05/02 05:30:44;;;;;;;13.10;6.22;;;4.80;99.90;;;;;;5068087;28;20806;-82
2022/05/02 05:33:18;;;;;;;14.68;7.10;;;4.90;99.90;;;;;;5067872;28;20078;-82
2022/05/02 05:35:59;;;;;;;;;;;5.00;99.90;;;;;;5068573;28;20578;-82
2022/05/02 05:38:34;;;;;;;9.38;6.40;;;5.20;99.90;;;;;;5066825;28;20330;-82
2022/05/02 05:41:29;;;;;;;11.20;6.78;;;5.30;99.90;;;;;;5067853;28;20072;-82
2022/05/02 05:44:14;;;;;;;13.02;7.10;;;5.50;99.90;;;;;;5066994;28;20052;-82
2022/05/02 05:47:00;;;;;;;9.85;6.82;;;5.70;99.90;;;;;;5067873;28;20556;-82
2022/05/02 05:49:38;;;;;;;10.88;6.90;;;5.80;99.90;;;;;;5066889;28;20143;-82
2022/05/02 05:52:15;;;;;;;13.90;7.90;;;6.00;99.90;;;;;;5066208;28;20063;-82
2022/05/02 05:54:58;;;;;;;13.23;8.18;;;6.10;99.90;;;;;;5066592;28;20056;-82
2022/05/02 05:57:43;;;;;;;8.40;6.95;;;6.30;99.90;;;;;;5067536;28;20386;-82
2022/05/02 06:00:14;;;;;;;13.20;7.50;;;6.50;99.90;;;;;;5065705;28;20057;-82
2022/05/02 06:03:06;;;;;;;13.05;8.25;;;6.70;99.90;;;;;;5067319;28;20040;-82
2022/05/02 06:05:37;;;;;;;13.52;8.20;;;7.70;99.90;;;;;;5065318;28;20087;-82
2022/05/02 06:08:09;;;;;;;11.20;7.72;;;7.00;99.90;;;;;;5067261;28;20508;-81
2022/05/02 06:10:35;;;;;;;12.88;7.13;;;7.20;99.90;;;;;;5065296;28;20044;-80
2022/05/02 06:13:02;;;;;;;14.05;7.03;;;7.30;99.90;;;;;;5066684;28;20080;-81
2022/05/02 06:18:27;;;;;;;10.52;6.10;;;7.90;99.90;;;;;;5067422;28;20040;-81
2022/05/02 06:20:59;;;;;;;12.80;6.53;;;7.80;99.90;;;;;;5066026;28;20110;-81
2022/05/02 06:23:27;;;;;;;9.90;6.55;;;8.00;99.90;;;;;;5067110;28;20059;-81
2022/05/02 06:25:54;;;;;;;8.85;6.53;;;7.70;99.90;;;;;;5066712;28;20041;-81
2022/05/02 06:28:23;;;;;;;10.18;7.47;;;8.20;99.90;;;;;;5066133;28;20045;-81
2022/05/02 06:30:53;;;;;;;12.73;6.90;;;9.20;99.90;;;;;;5066923;28;20055;-81
2022/05/02 06:33:23;;;;;;;9.95;6.60;;;9.40;99.90;;;;;;5067023;28;20039;-81
2022/05/02 06:36:17;;;;;;;11.75;7.07;;;8.70;99.90;;;;;;5065674;28;20055;-81
2022/05/02 06:39:04;;;;;;;14.80;10.52;;;8.80;99.90;;;;;;5065204;28;20048;-81
2022/05/02 06:42:01;;;;;;;13.13;9.82;;;9.00;99.90;;;;;;5048584;28;20044;-81
2022/05/02 06:44:42;;;;;;;17.90;12.70;;;9.10;99.90;;;;;;5066702;28;20044;-81
2022/05/02 06:47:56;;;;;;;15.18;11.35;;;9.20;99.90;;;;;;5065079;28;20054;-82
2022/05/02 06:50:23;;;;;;;;;;;9.40;99.90;;;;;;5066545;28;20523;-81
2022/05/02 06:53:21;;;;;;;31.17;23.63;;;10.60;99.90;;;;;;5065343;28;19987;-82
2022/05/02 06:56:13;;;;;;;34.60;27.85;;;9.60;99.90;;;;;;5065531;28;20161;-81
2022/05/02 06:58:52;;;;;;;33.78;25.92;;;9.70;99.90;;;;;;5063589;28;20139;-81
2022/05/02 07:01:30;;;;;;;24.50;19.05;;;10.60;99.90;;;;;;5066779;28;20044;-82
2022/05/02 07:04:20;;;;;;;25.40;18.58;;;9.90;99.90;;;;;;5065339;28;20123;-81
2022/05/02 07:07:03;;;;;;;9.50;6.88;;;10.10;99.90;;;;;;5066272;28;20063;-81
2022/05/02 07:09:53;;;;;;;8.80;6.70;;;10.20;99.90;;;;;;5048583;28;20037;-82
2022/05/02 07:12:25;;;;;;;11.77;4.75;;;10.40;99.90;;;;;;5065274;28;20436;-82
2022/05/02 07:15:03;;;;;;;6.45;4.57;;;11.40;99.90;;;;;;5048244;28;20048;-82
2022/05/02 07:17:43;;;;;;;8.02;4.80;;;10.60;99.90;;;;;;5066695;28;20094;-81
2022/05/02 07:20:25;;;;;;;4.72;3.95;;;10.70;99.90;;;;;;5066553;28;20052;-81
2022/05/02 07:23:18;;;;;;;6.60;4.40;;;10.80;99.90;;;;;;5067991;28;20059;-82
2022/05/02 07:25:50;;;;;;;5.13;3.85;;;11.00;99.90;;;;;;5069956;28;20048;-81
2022/05/02 07:28:31;;;;;;;3.03;2.22;;;11.10;99.90;;;;;;5070128;28;20036;-82
2022/05/02 07:30:58;;;;;;;6.45;3.78;;;11.20;99.90;;;;;;5070766;28;20045;-81
2022/05/02 07:33:31;;;;;;;5.47;3.10;;;11.50;99.90;;;;;;5068458;28;20552;-81
2022/05/02 07:36:01;;;;;;;3.63;3.00;;;11.40;99.90;;;;;;5070617;28;20044;-82
2022/05/02 07:38:33;;;;;;;4.43;2.83;;;11.50;99.90;;;;;;5070000;28;20044;-81
2022/05/02 07:44:01;;;;;;;3.05;1.95;;;11.80;99.90;;;;;;5070018;28;20613;-81
2022/05/02 07:46:51;;;;;;;5.25;2.88;;;11.90;99.90;;;;;;5068496;28;20080;-81
2022/05/02 07:49:25;;;;;;;3.58;2.75;;;11.90;99.90;;;;;;5069245;28;20264;-82
2022/05/02 07:51:53;;;;;;;5.32;2.55;;;12.70;99.90;;;;;;5070160;28;20401;-81
2022/05/02 07:54:20;;;;;;;4.00;2.88;;;12.40;99.90;;;;;;5069678;28;20047;-82
2022/05/02 07:56:51;;;;;;;5.28;3.17;;;12.20;99.90;;;;;;5069995;28;20079;-82
2022/05/02 07:59:20;;;;;;;6.53;3.45;;;12.30;99.90;;;;;;5069761;28;20044;-81
2022/05/02 08:01:46;;;;;;;3.72;3.17;;;12.40;99.90;;;;;;5069712;28;20052;-81
2022/05/02 08:04:13;;;;;;;6.63;3.50;;;12.50;99.90;;;;;;5069627;28;20442;-81
2022/05/02 08:07:04;;;;;;;5.50;3.30;;;12.60;99.90;;;;;;5069223;28;20041;-81
2022/05/02 08:10:07;;;;;;;5.68;3.65;;;12.80;99.90;;;;;;5069045;28;20072;-82
2022/05/02 08:12:40;;;;;;;;;;;12.90;99.90;;;;;;5057523;28;20499;-81
2022/05/02 08:15:25;;;;;;;5.03;3.10;;;13.00;99.90;;;;;;5067540;28;19927;-81
2022/05/02 08:18:15;;;;;;;4.40;3.30;;;13.20;99.90;;;;;;5069482;28;20067;-81
2022/05/02 08:20:52;;;;;;;7.70;3.10;;;13.50;99.90;;;;;;5069074;28;20102;-81
2022/05/02 08:29:53;;;;;;;4.70;3.28;;;15.10;99.90;;;;;;5069115;28;20092;-81
2022/05/02 08:32:41;;;;;;;4.97;3.13;;;15.40;99.90;;;;;;5067516;28;20510;-81
2022/05/02 08:35:26;;;;;;;4.78;3.45;;;15.60;99.90;;;;;;5066790;28;20051;-81
2022/05/02 08:38:11;;;;;;;6.88;3.40;;;15.90;99.90;;;;;;5068940;28;20048;-81
2022/05/02 08:41:12;;;;;;;7.57;3.42;;;15.90;99.90;;;;;;5068876;28;20053;-81
2022/05/02 08:44:16;;;;;;;3.70;3.30;;;16.10;99.90;;;;;;5069874;28;20060;-80
2022/05/02 08:47:10;;;;;;;6.22;3.25;;;16.30;99.30;;;;;;5068401;28;20052;-81
2022/05/02 08:49:42;;;;;;;;;;;16.40;99.10;;;;;;5068725;28;20139;-81
2022/05/02 08:52:37;;;;;;;4.60;2.92;;;16.50;96.80;;;;;;5068872;28;19920;-81
2022/05/02 08:55:25;;;;;;;8.88;3.60;;;16.70;98.80;;;;;;5068498;28;20044;-81
2022/05/02 08:58:16;;;;;;;5.80;3.28;;;16.70;98.20;;;;;;5067104;28;20492;-81
2022/05/02 09:00:47;;;;;;;5.57;3.35;;;16.70;98.60;;;;;;5069044;28;20040;-81
2022/05/02 09:03:43;;;;;;;4.22;3.22;;;16.60;99.10;;;;;;5068435;28;20045;-81
2022/05/02 09:06:31;;;;;;;4.78;3.45;;;16.70;97.80;;;;;;5067037;28;20041;-80
2022/05/02 09:09:19;;;;;;;9.55;3.40;;;16.70;96.70;;;;;;5068811;28;20487;-81
2022/05/02 09:12:23;;;;;;;4.90;3.17;;;16.70;96.20;;;;;;5067750;28;20511;-81
2022/05/02 09:15:13;;;;;;;5.85;3.25;;;16.70;98.40;;;;;;5065224;28;20123;-81
2022/05/02 09:18:03;;;;;;;8.95;3.63;;;16.60;98.60;;;;;;5048967;28;20037;-81
2022/05/02 09:20:35;;;;;;;4.90;3.03;;;16.50;95.80;;;;;;5061937;28;20518;-81
2022/05/02 09:23:13;;;;;;;11.15;4.20;;;16.40;99.20;;;;;;5066911;28;20127;-81
2022/05/02 09:26:06;;;;;;;6.60;4.40;;;16.40;98.60;;;;;;5068203;28;20070;-81
2022/05/02 09:28:36;;;;;;;5.57;3.20;;;16.50;94.40;;;;;;5067690;28;20127;-81
2022/05/02 09:31:20;;;;;;;4.72;3.17;;;16.50;98.00;;;;;;5068116;28;20063;-81
2022/05/02 09:34:04;;;;;;;3.92;3.03;;;16.50;94.00;;;;;;5066435;28;20045;-81
2022/05/02 09:36:43;;;;;;;5.88;3.50;;;16.50;90.20;;;;;;5067430;28;20049;-81
2022/05/02 09:39:22;;;;;;;6.40;3.53;;;16.40;90.20;;;;;;5066682;28;20040;-81
2022/05/02 09:41:48;;;;;;;4.50;3.35;;;16.20;92.50;;;;;;5067321;28;20152;-81
2022/05/02 09:51:01;;;;;;;4.88;3.58;;;15.90;95.30;;;;;;5066799;28;20155;-80
2022/05/02 09:53:48;;;;;;;3.85;3.38;;;16.00;91.80;;;;;;5066012;28;20202;-81
2022/05/02 09:56:38;;;;;;;8.02;4.05;;;16.20;94.60;;;;;;5067809;28;20410;-81
2022/05/02 09:59:07;;;;;;;5.93;2.60;;;16.40;93.70;;;;;;5067113;28;20135;-81
2022/05/02 10:01:34;;;;;;;4.45;3.33;;;16.70;92.90;;;;;;5067339;28;20043;-81
2022/05/02 10:04:18;;;;;;;4.70;2.95;;;16.80;91.60;;;;;;5066917;28;20052;-81
2022/05/02 10:06:55;;;;;;;4.18;2.60;;;17.00;86.30;;;;;;5048628;28;20052;-80
2022/05/02 10:09:33;;;;;;;4.55;2.78;;;17.30;87.20;;;;;;5067165;28;20064;-81
2022/05/02 10:12:25;;;;;;;4.05;2.42;;;17.30;81.80;;;;;;5066785;28;20466;-81
2022/05/02 10:15:12;;;;;;;5.95;2.50;;;17.90;73.90;;;;;;5065314;28;20530;-81
2022/05/02 10:18:15;;;;;;;6.22;3.05;;;17.90;79.30;;;;;;5067039;28;20052;-81
2022/05/02 10:21:20;;;;;;;5.38;2.90;;;18.00;74.90;;;;;;5066609;28;20495;-81
2022/05/02 10:23:52;;;;;;;5.88;3.15;;;18.20;73.00;;;;;;5066382;28;20044;-81
2022/05/02 10:26:41;;;;;;;6.23;3.33;;;18.30;79.10;;;;;;5066708;28;20044;-81
2022/05/02 10:29:22;;;;;;;7.82;2.80;;;18.10;72.30;;;;;;5066438;28;20286;-81
2022/05/02 10:31:57;;;;;;;4.60;2.33;;;17.90;72.10;;;;;;5066072;28;20107;-81
2022/05/02 10:34:28;;;;;;;3.92;2.35;;;17.70;74.10;;;;;;5066815;28;20045;-81
2022/05/02 10:36:55;;;;;;;3.88;3.00;;;17.50;75.00;;;;;;5066087;28;20093;-81
2022/05/02 10:39:40;;;;;;;4.32;2.78;;;17.40;74.00;;;;;;5066673;28;20444;-81
2022/05/02 10:42:07;;;;;;;3.33;2.83;;;17.40;67.40;;;;;;5066118;28;20127;-81
2022/05/02 10:45:05;;;;;;;4.85;2.30;;;16.70;72.90;;;;;;5031734;28;20083;-81
2022/05/02 10:47:44;;;;;;;4.03;2.60;;;16.40;69.00;;;;;;5066396;28;20044;-81
2022/05/02 10:50:20;;;;;;;4.90;2.25;;;16.50;69.60;;;;;;5065467;28;20088;-81
2022/05/02 10:53:02;;;;;;;3.78;2.20;;;17.40;67.10;;;;;;5064969;28;20064;-81
2022/05/02 10:55:32;;;;;;;5.13;2.33;;;17.00;66.80;;;;;;5065299;28;20611;-81
2022/05/02 10:58:11;;;;;;;2.58;1.67;;;17.30;63.30;;;;;;5065021;28;20088;-81
2022/05/02 11:01:04;;;;;;;4.20;2.00;;;17.80;57.50;;;;;;5066321;28;20052;-81
2022/05/02 11:03:51;;;;;;;3.28;2.22;;;17.90;60.10;;;;;;5065822;28;20134;-81
2022/05/02 11:06:35;;;;;;;3.15;2.72;;;18.10;60.80;;;;;;5065307;28;20059;-81
2022/05/02 11:09:03;;;;;;;4.03;2.90;;;18.40;60.00;;;;;;5066400;28;20076;-81
2022/05/02 11:11:50;;;;;;;3.03;2.58;;;18.50;61.00;;;;;;5065607;28;20059;-81
2022/05/02 11:14:43;;;;;;;4.68;2.42;;;18.70;61.40;;;;;;5064229;28;20049;-81
2022/05/02 11:17:18;;;;;;;5.75;2.95;;;18.80;59.90;;;;;;5066347;28;20638;-81
2022/05/02 11:23:46;;;;;;;3.00;2.35;;;19.00;57.80;;;;;;5045793;28;20049;-81
2022/05/02 11:26:33;;;;;;;3.38;2.63;;;19.20;56.90;;;;;;5063583;28;20048;-81
2022/05/02 11:29:10;;;;;;;5.68;3.03;;;19.30;58.70;;;;;;5060243;28;20113;-81
2022/05/02 11:32:02;;;;;;;4.53;3.00;;;19.20;57.40;;;;;;5065551;28;20132;-81
2022/05/02 11:34:59;;;;;;;3.05;2.15;;;19.30;55.30;;;;;;5066020;28;20063;-81
2022/05/02 11:37:37;;;;;;;4.45;1.90;;;19.40;54.90;;;;;;5063872;28;20060;-81
2022/05/02 11:40:11;;;;;;;3.30;2.03;;;19.70;56.10;;;;;;5064238;28;20045;-81
2022/05/02 11:42:42;;;;;;;5.55;2.40;;;19.90;54.60;;;;;;5066183;28;20051;-81
2022/05/02 11:45:13;;;;;;;5.25;1.60;;;20.00;53.60;;;;;;5065817;28;20044;-81
2022/05/02 11:48:12;;;;;;;3.35;2.05;;;20.00;53.00;;;;;;5064562;28;20048;-81
2022/05/02 11:50:48;;;;;;;4.50;2.97;;;20.10;51.50;;;;;;5065274;28;20088;-81
2022/05/02 11:53:16;;;;;;;3.30;2.40;;;20.30;53.40;;;;;;5063477;28;20120;-81
2022/05/02 11:55:45;;;;;;;4.45;3.08;;;20.30;54.30;;;;;;5064776;28;20122;-81
2022/05/02 11:58:34;;;;;;;3.45;2.72;;;20.40;54.40;;;;;;5065111;28;20072;-81
2022/05/02 12:01:06;;;;;;;4.25;2.75;;;20.50;53.40;;;;;;5064493;28;20337;-81
2022/05/02 12:04:01;;;;;;;3.35;2.88;;;20.60;54.40;;;;;;5064362;28;20049;-81
2022/05/02 12:06:41;;;;;;;3.33;2.80;;;20.60;52.90;;;;;;5063637;28;20438;-81
2022/05/02 12:09:29;;;;;;;3.63;2.50;;;20.60;54.80;;;;;;5066139;28;20048;-81
2022/05/02 12:11:58;;;;;;;6.25;3.03;;;20.60;53.00;;;;;;5068795;28;20051;-81
2022/05/02 12:14:25;;;;;;;7.13;3.08;;;20.30;54.00;;;;;;5067328;28;20040;-81
2022/05/02 12:17:26;;;;;;;4.95;2.70;;;20.10;54.70;;;;;;5069551;28;20407;-82
2022/05/02 12:19:52;;;;;;;5.20;3.10;;;19.70;53.70;;;;;;5065764;28;20063;-81
2022/05/02 12:22:24;;;;;;;4.40;3.05;;;19.20;55.40;;;;;;5063746;28;20049;-81
2022/05/02 12:24:54;;;;;;;6.95;3.08;;;18.80;56.00;;;;;;5067305;28;20055;-80
2022/05/02 12:27:26;;;;;;;5.13;3.35;;;18.80;57.80;;;;;;5068117;28;20037;-81
2022/05/02 12:30:01;;;;;;;5.03;3.42;;;18.80;57.90;;;;;;5069218;28;20057;-81
2022/05/02 12:32:31;;;;;;;4.32;2.80;;;19.00;58.50;;;;;;5066650;28;20049;-81
2022/05/02 12:34:57;;;;;;;5.53;3.22;;;19.30;58.30;;;;;;5069086;28;20041;-81
2022/05/02 12:37:34;;;;;;;5.65;3.30;;;19.40;58.40;;;;;;5068188;28;20564;-81
2022/05/02 12:40:12;;;;;;;4.43;2.90;;;19.70;57.40;;;;;;5068225;28;20121;-81
2022/05/02 12:42:51;;;;;;;4.72;3.28;;;19.90;57.20;;;;;;5068845;28;20044;-81
2022/05/02 12:45:18;;;;;;;4.57;3.00;;;20.10;56.70;;;;;;5068374;28;20044;-80
2022/05/02 12:47:59;;;;;;;4.10;3.30;;;20.60;56.60;;;;;;5068904;28;20045;-80
2022/05/02 12:50:28;;;;;;;5.05;3.13;;;20.30;56.10;;;;;;5068020;28;20060;-81
2022/05/02 12:53:05;;;;;;;6.22;3.20;;;20.30;55.70;;;;;;5067850;28;20080;-80
2022/05/02 12:55:33;;;;;;;4.15;2.83;;;20.30;55.70;;;;;;5067332;28;20459;-81
2022/05/02 13:00:52;;;;;;;4.90;2.63;;;20.60;55.50;;;;;;5068386;28;20051;-81
2022/05/02 13:03:27;;;;;;;3.85;3.15;;;20.70;54.50;;;;;;5068067;28;20127;-81
2022/05/02 13:05:58;;;;;;;5.07;3.22;;;20.80;54.30;;;;;;5067316;28;20476;-80
2022/05/02 13:08:42;;;;;;;5.75;3.33;;;20.80;54.40;;;;;;5050327;28;20102;-80
2022/05/02 13:11:22;;;;;;;5.32;3.72;;;20.70;53.80;;;;;;5067311;28;20054;-80
2022/05/02 13:13:54;;;;;;;6.10;3.13;;;20.70;54.30;;;;;;5066467;28;20089;-80
2022/05/02 13:16:30;;;;;;;3.73;2.60;;;20.70;54.50;;;;;;5066820;28;20040;-80
2022/05/02 13:19:00;;;;;;;5.63;4.13;;;20.70;54.10;;;;;;5067228;28;20130;-80
2022/05/02 13:21:27;;;;;;;4.70;3.08;;;20.70;54.80;;;;;;5067354;28;20522;-80
2022/05/02 13:24:02;;;;;;;4.32;2.80;;;20.70;55.00;;;;;;5067387;28;20506;-80
2022/05/02 13:26:37;;;;;;;4.13;2.70;;;20.80;55.00;;;;;;5068227;28;20044;-80
2022/05/02 13:29:15;;;;;;;3.92;2.70;;;20.80;55.10;;;;;;5067844;28;20119;-81
2022/05/02 13:31:48;;;;;;;3.60;2.65;;;20.90;54.20;;;;;;5065487;28;20045;-80
2022/05/02 13:34:40;;;;;;;3.72;2.95;;;20.90;54.30;;;;;;5067783;28;20586;-80
2022/05/02 13:37:13;;;;;;;3.67;2.78;;;20.90;54.70;;;;;;5065880;28;20099;-80
2022/05/02 13:40:11;;;;;;;5.82;2.88;;;20.90;54.50;;;;;;5067215;28;20050;-79
2022/05/02 13:42:59;;;;;;;3.50;2.83;;;21.00;53.40;;;;;;5067551;28;20045;-80
2022/05/02 13:45:51;;;;;;;5.22;2.80;;;20.90;53.80;;;;;;5065148;28;20067;-80
2022/05/02 13:48:30;;;;;;;3.92;2.63;;;20.90;54.20;;;;;;5066447;28;20476;-80
2022/05/02 13:51:27;;;;;;;5.72;3.13;;;21.00;54.90;;;;;;5065998;28;20057;-80
2022/05/02 13:54:00;;;;;;;4.00;2.85;;;21.10;54.50;;;;;;5066580;28;20093;-79
2022/05/02 13:56:43;;;;;;;3.90;3.05;;;21.20;54.50;;;;;;5067287;28;20547;-80
2022/05/02 13:59:32;;;;;;;4.40;2.80;;;21.10;54.40;;;;;;5067157;28;20145;-80